sensor_id;sensor_type;location;lat;lon;timestamp;P1;durP1;ratioP1;P2;durP2;ratioP2
31298;SDS011;17927;52.350;13.402;2023-10-31T00:02:01;6.57;;;3.50;;
31298;SDS011;17927;52.350;13.402;2023-10-31T00:04:26;3.70;;;3.30;;
31298;SDS011;17927;52.350;13.402;2023-10-31T00:06:52;7.72;;;3.55;;
31298;SDS011;17927;52.350;13.402;2023-10-31T00:09:17;5.10;;;3.30;;
31298;SDS011;17927;52.350;13.402;2023-10-31T00:11:42;4.85;;;3.60;;
31298;SDS011;17927;52.350;13.402;2023-10-31T00:14:09;4.15;;;3.13;;
31298;SDS011;17927;52.350;13.402;2023-10-31T00:16:34;3.83;;;3.17;;
31298;SDS011;17927;52.350;13.402;2023-10-31T00:18:59;10.85;;;3.35;;
31298;SDS011;17927;52.350;13.402;2023-10-31T00:21:24;10.18;;;3.35;;
31298;SDS011;17927;52.350;13.402;2023-10-31T00:23:50;4.70;;;4.15;;
31298;SDS011;17927;52.350;13.402;2023-10-31T00:26:15;4.38;;;3.22;;
31298;SDS011;17927;52.350;13.402;2023-10-31T00:28:40;5.45;;;3.72;;
31298;SDS011;17927;52.350;13.402;2023-10-31T00:31:05;6.07;;;3.78;;
31298;SDS011;17927;52.350;13.402;2023-10-31T00:33:32;7.28;;;3.50;;
31298;SDS011;17927;52.350;13.402;2023-10-31T00:35:58;4.07;;;3.33;;
31298;SDS011;17927;52.350;13.402;2023-10-31T00:38:23;4.80;;;3.20;;
31298;SDS011;17927;52.350;13.402;2023-10-31T00:40:49;3.17;;;2.97;;
31298;SDS011;17927;52.350;13.402;2023-10-31T00:43:14;4.38;;;3.25;;
31298;SDS011;17927;52.350;13.402;2023-10-31T00:45:39;3.50;;;3.20;;
31298;SDS011;17927;52.350;13.402;2023-10-31T00:48:04;4.75;;;3.20;;
31298;SDS011;17927;52.350;13.402;2023-10-31T00:50:30;5.03;;;3.78;;
31298;SDS011;17927;52.350;13.402;2023-10-31T00:52:55;4.82;;;3.70;;
31298;SDS011;17927;52.350;13.402;2023-10-31T00:55:20;10.27;;;4.13;;
31298;SDS011;17927;52.350;13.402;2023-10-31T00:57:45;6.53;;;3.40;;
31298;SDS011;17927;52.350;13.402;2023-10-31T01:00:11;8.88;;;3.65;;
31298;SDS011;17927;52.350;13.402;2023-10-31T01:02:36;7.03;;;3.92;;
31298;SDS011;17927;52.350;13.402;2023-10-31T01:05:02;7.93;;;3.50;;
31298;SDS011;17927;52.350;13.402;2023-10-31T01:07:27;7.32;;;4.05;;
31298;SDS011;17927;52.350;13.402;2023-10-31T01:09:52;5.82;;;3.65;;
31298;SDS011;17927;52.350;13.402;2023-10-31T01:12:17;6.45;;;3.75;;
31298;SDS011;17927;52.350;13.402;2023-10-31T01:14:43;4.93;;;3.47;;
31298;SDS011;17927;52.350;13.402;2023-10-31T01:17:08;9.30;;;4.10;;
31298;SDS011;17927;52.350;13.402;2023-10-31T01:19:33;4.35;;;3.25;;
31298;SDS011;17927;52.350;13.402;2023-10-31T01:21:58;8.85;;;3.95;;
31298;SDS011;17927;52.350;13.402;2023-10-31T01:24:24;7.30;;;3.83;;
31298;SDS011;17927;52.350;13.402;2023-10-31T01:26:49;7.07;;;3.40;;
31298;SDS011;17927;52.350;13.402;2023-10-31T01:29:14;5.88;;;3.45;;
31298;SDS011;17927;52.350;13.402;2023-10-31T01:31:42;5.80;;;3.72;;
31298;SDS011;17927;52.350;13.402;2023-10-31T01:37:30;6.97;;;3.45;;
31298;SDS011;17927;52.350;13.402;2023-10-31T01:39:55;6.10;;;3.90;;
31298;SDS011;17927;52.350;13.402;2023-10-31T01:42:20;3.95;;;3.55;;
31298;SDS011;17927;52.350;13.402;2023-10-31T01:44:46;6.28;;;3.70;;
31298;SDS011;17927;52.350;13.402;2023-10-31T01:47:11;6.13;;;4.00;;
31298;SDS011;17927;52.350;13.402;2023-10-31T01:49:36;5.28;;;4.15;;
31298;SDS011;17927;52.350;13.402;2023-10-31T01:52:05;9.60;;;4.05;;
31298;SDS011;17927;52.350;13.402;2023-10-31T01:54:32;13.98;;;4.70;;
31298;SDS011;17927;52.350;13.402;2023-10-31T01:56:58;9.38;;;5.38;;
31298;SDS011;17927;52.350;13.402;2023-10-31T01:59:24;7.63;;;4.63;;
31298;SDS011;17927;52.350;13.402;2023-10-31T02:01:51;7.25;;;4.10;;
31298;SDS011;17927;52.350;13.402;2023-10-31T02:04:16;6.10;;;4.50;;
31298;SDS011;17927;52.350;13.402;2023-10-31T02:06:41;4.50;;;4.10;;
31298;SDS011;17927;52.350;13.402;2023-10-31T02:09:06;5.22;;;3.55;;
31298;SDS011;17927;52.350;13.402;2023-10-31T02:11:32;4.53;;;3.67;;
31298;SDS011;17927;52.350;13.402;2023-10-31T02:13:57;4.38;;;3.97;;
31298;SDS011;17927;52.350;13.402;2023-10-31T02:16:22;6.78;;;3.70;;
31298;SDS011;17927;52.350;13.402;2023-10-31T02:18:47;6.22;;;3.38;;
31298;SDS011;17927;52.350;13.402;2023-10-31T02:21:13;6.13;;;4.07;;
31298;SDS011;17927;52.350;13.402;2023-10-31T02:23:38;9.07;;;3.53;;
31298;SDS011;17927;52.350;13.402;2023-10-31T02:26:03;3.63;;;3.33;;
31298;SDS011;17927;52.350;13.402;2023-10-31T02:28:29;5.38;;;3.90;;
31298;SDS011;17927;52.350;13.402;2023-10-31T02:30:54;5.45;;;4.30;;
31298;SDS011;17927;52.350;13.402;2023-10-31T02:33:22;4.95;;;4.18;;
31298;SDS011;17927;52.350;13.402;2023-10-31T02:35:47;5.45;;;4.20;;
31298;SDS011;17927;52.350;13.402;2023-10-31T02:38:13;4.80;;;3.67;;
31298;SDS011;17927;52.350;13.402;2023-10-31T02:40:38;6.57;;;4.22;;
31298;SDS011;17927;52.350;13.402;2023-10-31T02:43:03;3.80;;;3.50;;
31298;SDS011;17927;52.350;13.402;2023-10-31T02:45:28;3.90;;;3.42;;
31298;SDS011;17927;52.350;13.402;2023-10-31T02:47:54;8.75;;;4.10;;
31298;SDS011;17927;52.350;13.402;2023-10-31T02:50:20;4.95;;;4.07;;
31298;SDS011;17927;52.350;13.402;2023-10-31T02:52:45;6.70;;;4.35;;
31298;SDS011;17927;52.350;13.402;2023-10-31T02:55:10;6.50;;;3.70;;
31298;SDS011;17927;52.350;13.402;2023-10-31T02:57:36;7.85;;;3.75;;
31298;SDS011;17927;52.350;13.402;2023-10-31T03:00:01;5.55;;;3.53;;
31298;SDS011;17927;52.350;13.402;2023-10-31T03:02:26;4.07;;;3.65;;
31298;SDS011;17927;52.350;13.402;2023-10-31T03:04:52;4.90;;;3.65;;
31298;SDS011;17927;52.350;13.402;2023-10-31T03:07:17;7.07;;;3.85;;
31298;SDS011;17927;52.350;13.402;2023-10-31T03:09:42;5.75;;;4.28;;
31298;SDS011;17927;52.350;13.402;2023-10-31T03:12:07;6.88;;;3.85;;
31298;SDS011;17927;52.350;13.402;2023-10-31T03:14:32;6.68;;;4.20;;
31298;SDS011;17927;52.350;13.402;2023-10-31T03:16:58;6.15;;;4.13;;
31298;SDS011;17927;52.350;13.402;2023-10-31T03:19:23;7.05;;;4.22;;
31298;SDS011;17927;52.350;13.402;2023-10-31T03:21:48;4.65;;;4.03;;
31298;SDS011;17927;52.350;13.402;2023-10-31T03:24:13;7.65;;;4.32;;
31298;SDS011;17927;52.350;13.402;2023-10-31T03:26:39;4.30;;;4.00;;
31298;SDS011;17927;52.350;13.402;2023-10-31T03:29:04;5.32;;;4.10;;
31298;SDS011;17927;52.350;13.402;2023-10-31T03:31:29;4.88;;;4.43;;
31298;SDS011;17927;52.350;13.402;2023-10-31T03:33:54;6.50;;;4.78;;
31298;SDS011;17927;52.350;13.402;2023-10-31T03:36:20;5.63;;;4.70;;
31298;SDS011;17927;52.350;13.402;2023-10-31T03:38:45;6.43;;;4.88;;
31298;SDS011;17927;52.350;13.402;2023-10-31T03:41:11;7.07;;;5.13;;
31298;SDS011;17927;52.350;13.402;2023-10-31T03:43:38;9.43;;;5.30;;
31298;SDS011;17927;52.350;13.402;2023-10-31T03:46:03;5.35;;;4.85;;
31298;SDS011;17927;52.350;13.402;2023-10-31T03:48:28;6.80;;;4.93;;
31298;SDS011;17927;52.350;13.402;2023-10-31T03:50:54;10.80;;;5.20;;
31298;SDS011;17927;52.350;13.402;2023-10-31T03:53:19;6.30;;;4.93;;
31298;SDS011;17927;52.350;13.402;2023-10-31T03:55:44;7.22;;;5.40;;
31298;SDS011;17927;52.350;13.402;2023-10-31T03:58:10;8.40;;;5.10;;
31298;SDS011;17927;52.350;13.402;2023-10-31T04:00:35;10.07;;;5.53;;
31298;SDS011;17927;52.350;13.402;2023-10-31T04:03:01;8.05;;;5.32;;
31298;SDS011;17927;52.350;13.402;2023-10-31T04:05:26;5.93;;;5.10;;
31298;SDS011;17927;52.350;13.402;2023-10-31T04:07:51;8.52;;;5.15;;
31298;SDS011;17927;52.350;13.402;2023-10-31T04:10:17;6.22;;;5.30;;
31298;SDS011;17927;52.350;13.402;2023-10-31T04:12:43;6.55;;;5.32;;
31298;SDS011;17927;52.350;13.402;2023-10-31T04:15:09;7.32;;;5.35;;
31298;SDS011;17927;52.350;13.402;2023-10-31T04:17:34;9.40;;;5.70;;
31298;SDS011;17927;52.350;13.402;2023-10-31T04:20:00;7.00;;;4.80;;
31298;SDS011;17927;52.350;13.402;2023-10-31T04:22:25;5.63;;;5.15;;
31298;SDS011;17927;52.350;13.402;2023-10-31T04:24:50;8.15;;;5.65;;
31298;SDS011;17927;52.350;13.402;2023-10-31T04:27:16;8.50;;;5.05;;
31298;SDS011;17927;52.350;13.402;2023-10-31T04:29:41;5.28;;;4.78;;
31298;SDS011;17927;52.350;13.402;2023-10-31T04:32:06;5.43;;;4.63;;
31298;SDS011;17927;52.350;13.402;2023-10-31T04:34:31;7.38;;;4.43;;
31298;SDS011;17927;52.350;13.402;2023-10-31T04:36:57;5.18;;;4.68;;
31298;SDS011;17927;52.350;13.402;2023-10-31T04:39:22;7.35;;;5.07;;
31298;SDS011;17927;52.350;13.402;2023-10-31T04:41:48;9.10;;;4.30;;
31298;SDS011;17927;52.350;13.402;2023-10-31T04:44:14;5.38;;;4.88;;
31298;SDS011;17927;52.350;13.402;2023-10-31T04:46:39;7.70;;;5.18;;
31298;SDS011;17927;52.350;13.402;2023-10-31T04:49:04;6.80;;;4.70;;
31298;SDS011;17927;52.350;13.402;2023-10-31T04:51:36;7.00;;;4.30;;
31298;SDS011;17927;52.350;13.402;2023-10-31T04:54:02;4.95;;;4.45;;
31298;SDS011;17927;52.350;13.402;2023-10-31T04:56:27;5.63;;;4.80;;
31298;SDS011;17927;52.350;13.402;2023-10-31T04:58:53;5.10;;;4.65;;
31298;SDS011;17927;52.350;13.402;2023-10-31T05:01:18;4.22;;;3.90;;
31298;SDS011;17927;52.350;13.402;2023-10-31T05:03:44;5.15;;;4.45;;
31298;SDS011;17927;52.350;13.402;2023-10-31T05:06:09;4.85;;;4.38;;
31298;SDS011;17927;52.350;13.402;2023-10-31T05:08:35;4.18;;;3.88;;
31298;SDS011;17927;52.350;13.402;2023-10-31T05:11:00;5.00;;;4.50;;
31298;SDS011;17927;52.350;13.402;2023-10-31T05:13:25;4.57;;;4.18;;
31298;SDS011;17927;52.350;13.402;2023-10-31T05:15:50;5.40;;;4.72;;
31298;SDS011;17927;52.350;13.402;2023-10-31T05:18:16;4.65;;;4.05;;
31298;SDS011;17927;52.350;13.402;2023-10-31T05:20:42;5.00;;;4.60;;
31298;SDS011;17927;52.350;13.402;2023-10-31T05:23:07;7.10;;;4.78;;
31298;SDS011;17927;52.350;13.402;2023-10-31T05:25:33;4.68;;;4.32;;
31298;SDS011;17927;52.350;13.402;2023-10-31T05:27:58;4.38;;;4.05;;
31298;SDS011;17927;52.350;13.402;2023-10-31T05:30:24;4.97;;;4.50;;
31298;SDS011;17927;52.350;13.402;2023-10-31T05:32:50;4.70;;;4.18;;
31298;SDS011;17927;52.350;13.402;2023-10-31T05:35:15;7.10;;;6.43;;
31298;SDS011;17927;52.350;13.402;2023-10-31T05:37:41;5.25;;;4.78;;
31298;SDS011;17927;52.350;13.402;2023-10-31T05:40:06;6.10;;;5.60;;
31298;SDS011;17927;52.350;13.402;2023-10-31T05:42:32;4.22;;;3.92;;
31298;SDS011;17927;52.350;13.402;2023-10-31T05:44:57;4.63;;;3.90;;
31298;SDS011;17927;52.350;13.402;2023-10-31T05:47:22;11.07;;;7.82;;
31298;SDS011;17927;52.350;13.402;2023-10-31T05:49:48;6.72;;;6.07;;
31298;SDS011;17927;52.350;13.402;2023-10-31T05:52:13;4.20;;;3.80;;
31298;SDS011;17927;52.350;13.402;2023-10-31T05:54:38;4.20;;;3.90;;
31298;SDS011;17927;52.350;13.402;2023-10-31T05:57:03;5.30;;;4.13;;
31298;SDS011;17927;52.350;13.402;2023-10-31T05:59:29;5.15;;;4.72;;
31298;SDS011;17927;52.350;13.402;2023-10-31T06:01:54;7.38;;;4.57;;
31298;SDS011;17927;52.350;13.402;2023-10-31T06:04:19;6.18;;;4.30;;
31298;SDS011;17927;52.350;13.402;2023-10-31T06:06:45;3.80;;;3.50;;
31298;SDS011;17927;52.350;13.402;2023-10-31T06:09:10;5.15;;;4.22;;
31298;SDS011;17927;52.350;13.402;2023-10-31T06:11:35;4.55;;;4.10;;
31298;SDS011;17927;52.350;13.402;2023-10-31T06:14:00;4.10;;;3.83;;
31298;SDS011;17927;52.350;13.402;2023-10-31T06:16:26;3.72;;;3.42;;
31298;SDS011;17927;52.350;13.402;2023-10-31T06:18:51;3.17;;;2.90;;
31298;SDS011;17927;52.350;13.402;2023-10-31T06:21:16;4.65;;;2.92;;
31298;SDS011;17927;52.350;13.402;2023-10-31T06:23:42;3.05;;;2.75;;
31298;SDS011;17927;52.350;13.402;2023-10-31T06:26:10;3.67;;;2.67;;
31298;SDS011;17927;52.350;13.402;2023-10-31T06:28:35;3.15;;;2.95;;
31298;SDS011;17927;52.350;13.402;2023-10-31T06:31:02;4.15;;;2.75;;
31298;SDS011;17927;52.350;13.402;2023-10-31T06:33:27;2.63;;;2.20;;
31298;SDS011;17927;52.350;13.402;2023-10-31T06:35:52;4.00;;;2.58;;
31298;SDS011;17927;52.350;13.402;2023-10-31T06:38:18;4.20;;;2.38;;
31298;SDS011;17927;52.350;13.402;2023-10-31T06:40:44;2.70;;;2.47;;
31298;SDS011;17927;52.350;13.402;2023-10-31T06:43:09;1.92;;;1.83;;
31298;SDS011;17927;52.350;13.402;2023-10-31T06:45:34;3.95;;;2.10;;
31298;SDS011;17927;52.350;13.402;2023-10-31T06:48:00;3.40;;;2.10;;
31298;SDS011;17927;52.350;13.402;2023-10-31T06:50:25;4.10;;;2.15;;
31298;SDS011;17927;52.350;13.402;2023-10-31T06:52:50;2.08;;;1.85;;
31298;SDS011;17927;52.350;13.402;2023-10-31T06:55:15;1.95;;;1.80;;
31298;SDS011;17927;52.350;13.402;2023-10-31T06:57:41;2.90;;;1.88;;
31298;SDS011;17927;52.350;13.402;2023-10-31T07:00:06;2.13;;;1.95;;
31298;SDS011;17927;52.350;13.402;2023-10-31T07:02:33;2.25;;;1.83;;
31298;SDS011;17927;52.350;13.402;2023-10-31T07:04:59;2.33;;;2.13;;
31298;SDS011;17927;52.350;13.402;2023-10-31T07:07:24;5.05;;;2.25;;
31298;SDS011;17927;52.350;13.402;2023-10-31T07:09:49;4.65;;;1.98;;
31298;SDS011;17927;52.350;13.402;2023-10-31T07:12:14;2.58;;;2.38;;
31298;SDS011;17927;52.350;13.402;2023-10-31T07:14:40;2.10;;;2.00;;
31298;SDS011;17927;52.350;13.402;2023-10-31T07:17:05;2.72;;;1.95;;
31298;SDS011;17927;52.350;13.402;2023-10-31T07:19:30;5.70;;;2.00;;
31298;SDS011;17927;52.350;13.402;2023-10-31T07:21:55;4.32;;;2.15;;
31298;SDS011;17927;52.350;13.402;2023-10-31T07:24:21;4.63;;;2.08;;
31298;SDS011;17927;52.350;13.402;2023-10-31T07:26:46;2.53;;;2.33;;
31298;SDS011;17927;52.350;13.402;2023-10-31T07:29:11;2.85;;;2.65;;
31298;SDS011;17927;52.350;13.402;2023-10-31T07:31:37;3.10;;;2.80;;
31298;SDS011;17927;52.350;13.402;2023-10-31T07:34:03;4.10;;;2.03;;
31298;SDS011;17927;52.350;13.402;2023-10-31T07:36:32;5.50;;;2.20;;
31298;SDS011;17927;52.350;13.402;2023-10-31T07:38:59;1.70;;;1.45;;
31298;SDS011;17927;52.350;13.402;2023-10-31T07:41:25;2.00;;;1.42;;
31298;SDS011;17927;52.350;13.402;2023-10-31T07:43:50;1.30;;;1.20;;
31298;SDS011;17927;52.350;13.402;2023-10-31T07:46:15;2.85;;;0.90;;
31298;SDS011;17927;52.350;13.402;2023-10-31T07:48:40;1.45;;;0.82;;
31298;SDS011;17927;52.350;13.402;2023-10-31T07:51:06;4.65;;;0.90;;
31298;SDS011;17927;52.350;13.402;2023-10-31T07:53:31;1.23;;;0.90;;
31298;SDS011;17927;52.350;13.402;2023-10-31T07:55:56;1.75;;;0.90;;
31298;SDS011;17927;52.350;13.402;2023-10-31T07:58:21;3.83;;;0.60;;
31298;SDS011;17927;52.350;13.402;2023-10-31T08:00:47;0.50;;;0.50;;
31298;SDS011;17927;52.350;13.402;2023-10-31T08:03:12;2.55;;;1.05;;
31298;SDS011;17927;52.350;13.402;2023-10-31T08:05:37;0.73;;;0.60;;
31298;SDS011;17927;52.350;13.402;2023-10-31T08:08:02;0.60;;;0.60;;
31298;SDS011;17927;52.350;13.402;2023-10-31T08:10:28;3.80;;;0.75;;
31298;SDS011;17927;52.350;13.402;2023-10-31T08:12:53;0.77;;;0.77;;
31298;SDS011;17927;52.350;13.402;2023-10-31T08:15:18;0.50;;;0.50;;
31298;SDS011;17927;52.350;13.402;2023-10-31T08:17:43;0.73;;;0.50;;
31298;SDS011;17927;52.350;13.402;2023-10-31T08:20:09;1.15;;;0.40;;
31298;SDS011;17927;52.350;13.402;2023-10-31T08:22:36;2.47;;;0.90;;
31298;SDS011;17927;52.350;13.402;2023-10-31T08:25:02;2.85;;;0.47;;
31298;SDS011;17927;52.350;13.402;2023-10-31T08:27:27;0.80;;;0.80;;
31298;SDS011;17927;52.350;13.402;2023-10-31T08:29:52;1.27;;;0.50;;
31298;SDS011;17927;52.350;13.402;2023-10-31T08:32:18;1.05;;;0.45;;
31298;SDS011;17927;52.350;13.402;2023-10-31T08:34:43;3.03;;;1.20;;
31298;SDS011;17927;52.350;13.402;2023-10-31T08:37:08;1.42;;;0.82;;
31298;SDS011;17927;52.350;13.402;2023-10-31T08:39:34;2.20;;;0.50;;
31298;SDS011;17927;52.350;13.402;2023-10-31T08:41:59;0.57;;;0.50;;
31298;SDS011;17927;52.350;13.402;2023-10-31T08:44:24;2.22;;;0.30;;
31298;SDS011;17927;52.350;13.402;2023-10-31T08:46:50;0.70;;;0.70;;
31298;SDS011;17927;52.350;13.402;2023-10-31T08:49:16;1.73;;;0.85;;
31298;SDS011;17927;52.350;13.402;2023-10-31T08:51:41;2.35;;;0.60;;
31298;SDS011;17927;52.350;13.402;2023-10-31T08:54:07;1.70;;;0.40;;
31298;SDS011;17927;52.350;13.402;2023-10-31T08:56:33;0.50;;;0.50;;
31298;SDS011;17927;52.350;13.402;2023-10-31T08:58:59;1.45;;;0.40;;
31298;SDS011;17927;52.350;13.402;2023-10-31T09:01:24;3.38;;;0.50;;
31298;SDS011;17927;52.350;13.402;2023-10-31T09:03:51;1.85;;;0.70;;
31298;SDS011;17927;52.350;13.402;2023-10-31T09:06:16;1.65;;;0.50;;
31298;SDS011;17927;52.350;13.402;2023-10-31T09:08:41;3.90;;;0.90;;
31298;SDS011;17927;52.350;13.402;2023-10-31T09:11:06;1.17;;;0.70;;
31298;SDS011;17927;52.350;13.402;2023-10-31T09:13:32;1.38;;;0.50;;
31298;SDS011;17927;52.350;13.402;2023-10-31T09:15:58;0.35;;;0.30;;
31298;SDS011;17927;52.350;13.402;2023-10-31T09:18:24;0.40;;;0.40;;
31298;SDS011;17927;52.350;13.402;2023-10-31T09:20:49;0.45;;;0.40;;
31298;SDS011;17927;52.350;13.402;2023-10-31T09:23:15;1.45;;;0.70;;
31298;SDS011;17927;52.350;13.402;2023-10-31T09:25:42;0.52;;;0.52;;
31298;SDS011;17927;52.350;13.402;2023-10-31T09:28:07;2.90;;;0.60;;
31298;SDS011;17927;52.350;13.402;2023-10-31T09:30:33;2.30;;;1.83;;
31298;SDS011;17927;52.350;13.402;2023-10-31T09:32:58;1.10;;;0.65;;
31298;SDS011;17927;52.350;13.402;2023-10-31T09:35:23;1.13;;;0.43;;
31298;SDS011;17927;52.350;13.402;2023-10-31T09:37:49;3.95;;;0.40;;
31298;SDS011;17927;52.350;13.402;2023-10-31T09:40:15;2.13;;;0.60;;
31298;SDS011;17927;52.350;13.402;2023-10-31T09:42:40;0.57;;;0.50;;
31298;SDS011;17927;52.350;13.402;2023-10-31T09:45:06;0.50;;;0.50;;
31298;SDS011;17927;52.350;13.402;2023-10-31T09:47:31;0.80;;;0.63;;
31298;SDS011;17927;52.350;13.402;2023-10-31T09:49:57;0.75;;;0.75;;
31298;SDS011;17927;52.350;13.402;2023-10-31T09:52:23;2.55;;;1.15;;
31298;SDS011;17927;52.350;13.402;2023-10-31T09:54:49;0.60;;;0.60;;
31298;SDS011;17927;52.350;13.402;2023-10-31T09:57:15;0.60;;;0.60;;
31298;SDS011;17927;52.350;13.402;2023-10-31T09:59:42;0.80;;;0.60;;
31298;SDS011;17927;52.350;13.402;2023-10-31T10:02:07;2.15;;;0.88;;
31298;SDS011;17927;52.350;13.402;2023-10-31T10:04:32;1.65;;;0.88;;
31298;SDS011;17927;52.350;13.402;2023-10-31T10:06:58;0.60;;;0.60;;
31298;SDS011;17927;52.350;13.402;2023-10-31T10:09:27;1.55;;;0.80;;
31298;SDS011;17927;52.350;13.402;2023-10-31T10:11:53;0.60;;;0.60;;
31298;SDS011;17927;52.350;13.402;2023-10-31T10:14:18;1.25;;;0.80;;
31298;SDS011;17927;52.350;13.402;2023-10-31T10:16:44;0.60;;;0.60;;
31298;SDS011;17927;52.350;13.402;2023-10-31T10:19:19;1.17;;;0.65;;
31298;SDS011;17927;52.350;13.402;2023-10-31T10:21:49;0.80;;;0.70;;
31298;SDS011;17927;52.350;13.402;2023-10-31T10:24:17;0.50;;;0.50;;
31298;SDS011;17927;52.350;13.402;2023-10-31T10:26:43;0.90;;;0.90;;
31298;SDS011;17927;52.350;13.402;2023-10-31T10:29:09;0.65;;;0.65;;
31298;SDS011;17927;52.350;13.402;2023-10-31T10:31:34;1.92;;;0.65;;
31298;SDS011;17927;52.350;13.402;2023-10-31T10:34:00;1.40;;;0.93;;
31298;SDS011;17927;52.350;13.402;2023-10-31T10:36:26;0.70;;;0.70;;
31298;SDS011;17927;52.350;13.402;2023-10-31T10:38:53;0.70;;;0.60;;
31298;SDS011;17927;52.350;13.402;2023-10-31T10:41:22;1.10;;;1.00;;
31298;SDS011;17927;52.350;13.402;2023-10-31T10:43:53;0.80;;;0.80;;
31298;SDS011;17927;52.350;13.402;2023-10-31T10:46:21;0.77;;;0.77;;
31298;SDS011;17927;52.350;13.402;2023-10-31T10:48:50;2.55;;;1.00;;
31298;SDS011;17927;52.350;13.402;2023-10-31T10:51:24;7.13;;;1.65;;
31298;SDS011;17927;52.350;13.402;2023-10-31T10:53:58;5.10;;;0.85;;
31298;SDS011;17927;52.350;13.402;2023-10-31T10:56:38;0.77;;;0.77;;
31298;SDS011;17927;52.350;13.402;2023-10-31T10:59:14;1.05;;;1.05;;
31298;SDS011;17927;52.350;13.402;2023-10-31T11:01:43;1.50;;;1.02;;
31298;SDS011;17927;52.350;13.402;2023-10-31T11:04:11;1.77;;;0.80;;
31298;SDS011;17927;52.350;13.402;2023-10-31T11:06:36;0.73;;;0.73;;
31298;SDS011;17927;52.350;13.402;2023-10-31T11:09:03;1.45;;;0.85;;
31298;SDS011;17927;52.350;13.402;2023-10-31T11:11:29;1.20;;;0.70;;
31298;SDS011;17927;52.350;13.402;2023-10-31T11:13:54;2.85;;;0.70;;
31298;SDS011;17927;52.350;13.402;2023-10-31T11:16:37;1.15;;;0.95;;
31298;SDS011;17927;52.350;13.402;2023-10-31T11:19:06;0.50;;;0.50;;
31298;SDS011;17927;52.350;13.402;2023-10-31T11:21:32;0.60;;;0.60;;
31298;SDS011;17927;52.350;13.402;2023-10-31T11:23:59;0.70;;;0.70;;
31298;SDS011;17927;52.350;13.402;2023-10-31T11:26:34;0.57;;;0.57;;
31298;SDS011;17927;52.350;13.402;2023-10-31T11:29:03;0.82;;;0.82;;
31298;SDS011;17927;52.350;13.402;2023-10-31T11:31:30;1.10;;;0.60;;
31298;SDS011;17927;52.350;13.402;2023-10-31T11:33:55;3.05;;;0.77;;
31298;SDS011;17927;52.350;13.402;2023-10-31T11:36:21;0.70;;;0.60;;
31298;SDS011;17927;52.350;13.402;2023-10-31T11:38:47;0.60;;;0.60;;
31298;SDS011;17927;52.350;13.402;2023-10-31T11:41:12;2.70;;;1.10;;
31298;SDS011;17927;52.350;13.402;2023-10-31T11:46:06;0.85;;;0.60;;
31298;SDS011;17927;52.350;13.402;2023-10-31T11:49:01;3.85;;;1.05;;
31298;SDS011;17927;52.350;13.402;2023-10-31T11:51:29;0.63;;;0.63;;
31298;SDS011;17927;52.350;13.402;2023-10-31T11:53:55;1.95;;;0.60;;
31298;SDS011;17927;52.350;13.402;2023-10-31T11:56:21;0.55;;;0.50;;
31298;SDS011;17927;52.350;13.402;2023-10-31T11:58:57;1.55;;;0.65;;
31298;SDS011;17927;52.350;13.402;2023-10-31T12:01:23;0.50;;;0.50;;
31298;SDS011;17927;52.350;13.402;2023-10-31T12:03:48;0.73;;;0.63;;
31298;SDS011;17927;52.350;13.402;2023-10-31T12:06:14;0.85;;;0.80;;
31298;SDS011;17927;52.350;13.402;2023-10-31T12:08:41;3.13;;;0.50;;
31298;SDS011;17927;52.350;13.402;2023-10-31T12:11:08;0.80;;;0.45;;
31298;SDS011;17927;52.350;13.402;2023-10-31T12:13:36;1.15;;;0.70;;
31298;SDS011;17927;52.350;13.402;2023-10-31T12:16:05;1.03;;;0.60;;
31298;SDS011;17927;52.350;13.402;2023-10-31T12:18:32;2.97;;;0.52;;
31298;SDS011;17927;52.350;13.402;2023-10-31T12:20:58;0.75;;;0.65;;
31298;SDS011;17927;52.350;13.402;2023-10-31T12:23:24;0.77;;;0.70;;
31298;SDS011;17927;52.350;13.402;2023-10-31T12:25:49;2.78;;;0.90;;
31298;SDS011;17927;52.350;13.402;2023-10-31T12:28:19;0.80;;;0.60;;
31298;SDS011;17927;52.350;13.402;2023-10-31T12:30:46;0.50;;;0.50;;
31298;SDS011;17927;52.350;13.402;2023-10-31T12:33:12;2.78;;;0.50;;
31298;SDS011;17927;52.350;13.402;2023-10-31T12:35:37;0.47;;;0.32;;
31298;SDS011;17927;52.350;13.402;2023-10-31T12:38:03;2.05;;;0.70;;
31298;SDS011;17927;52.350;13.402;2023-10-31T12:40:28;0.30;;;0.30;;
31298;SDS011;17927;52.350;13.402;2023-10-31T12:42:54;0.85;;;0.50;;
31298;SDS011;17927;52.350;13.402;2023-10-31T12:45:19;0.63;;;0.63;;
31298;SDS011;17927;52.350;13.402;2023-10-31T12:47:46;0.25;;;0.25;;
31298;SDS011;17927;52.350;13.402;2023-10-31T12:50:26;0.32;;;0.32;;
31298;SDS011;17927;52.350;13.402;2023-10-31T12:52:54;0.20;;;0.20;;
31298;SDS011;17927;52.350;13.402;2023-10-31T12:55:22;0.32;;;0.32;;
31298;SDS011;17927;52.350;13.402;2023-10-31T12:57:52;1.27;;;0.47;;
31298;SDS011;17927;52.350;13.402;2023-10-31T13:00:19;0.40;;;0.40;;
31298;SDS011;17927;52.350;13.402;2023-10-31T13:02:50;0.45;;;0.45;;
31298;SDS011;17927;52.350;13.402;2023-10-31T13:05:37;0.55;;;0.40;;
31298;SDS011;17927;52.350;13.402;2023-10-31T13:08:08;1.85;;;0.30;;
31298;SDS011;17927;52.350;13.402;2023-10-31T13:10:38;0.45;;;0.45;;
31298;SDS011;17927;52.350;13.402;2023-10-31T13:13:04;0.30;;;0.30;;
31298;SDS011;17927;52.350;13.402;2023-10-31T13:15:29;0.40;;;0.40;;
31298;SDS011;17927;52.350;13.402;2023-10-31T13:17:54;0.60;;;0.40;;
31298;SDS011;17927;52.350;13.402;2023-10-31T13:20:20;0.20;;;0.20;;
31298;SDS011;17927;52.350;13.402;2023-10-31T13:22:46;0.30;;;0.20;;
31298;SDS011;17927;52.350;13.402;2023-10-31T13:25:13;0.32;;;0.30;;
31298;SDS011;17927;52.350;13.402;2023-10-31T13:27:40;0.65;;;0.47;;
31298;SDS011;17927;52.350;13.402;2023-10-31T13:30:08;2.10;;;0.60;;
31298;SDS011;17927;52.350;13.402;2023-10-31T13:32:35;0.30;;;0.30;;
31298;SDS011;17927;52.350;13.402;2023-10-31T13:37:51;1.40;;;0.50;;
31298;SDS011;17927;52.350;13.402;2023-10-31T13:40:16;0.38;;;0.38;;
31298;SDS011;17927;52.350;13.402;2023-10-31T13:42:42;0.40;;;0.25;;
31298;SDS011;17927;52.350;13.402;2023-10-31T13:45:07;0.20;;;0.20;;
31298;SDS011;17927;52.350;13.402;2023-10-31T13:47:32;3.50;;;0.88;;
31298;SDS011;17927;52.350;13.402;2023-10-31T13:49:58;1.42;;;0.50;;
31298;SDS011;17927;52.350;13.402;2023-10-31T13:52:24;1.42;;;1.17;;
31298;SDS011;17927;52.350;13.402;2023-10-31T13:54:49;0.40;;;0.40;;
31298;SDS011;17927;52.350;13.402;2023-10-31T13:57:14;0.73;;;0.73;;
31298;SDS011;17927;52.350;13.402;2023-10-31T13:59:39;1.55;;;0.40;;
31298;SDS011;17927;52.350;13.402;2023-10-31T14:02:05;3.83;;;0.40;;
31298;SDS011;17927;52.350;13.402;2023-10-31T14:04:31;3.58;;;0.40;;
31298;SDS011;17927;52.350;13.402;2023-10-31T14:06:56;0.35;;;0.30;;
31298;SDS011;17927;52.350;13.402;2023-10-31T14:09:21;0.40;;;0.40;;
31298;SDS011;17927;52.350;13.402;2023-10-31T14:11:47;0.38;;;0.15;;
31298;SDS011;17927;52.350;13.402;2023-10-31T14:14:12;2.75;;;0.30;;
31298;SDS011;17927;52.350;13.402;2023-10-31T14:16:47;0.38;;;0.30;;
31298;SDS011;17927;52.350;13.402;2023-10-31T14:19:14;1.88;;;0.40;;
31298;SDS011;17927;52.350;13.402;2023-10-31T14:21:41;0.28;;;0.20;;
31298;SDS011;17927;52.350;13.402;2023-10-31T14:24:07;0.40;;;0.30;;
31298;SDS011;17927;52.350;13.402;2023-10-31T14:26:33;1.17;;;0.50;;
31298;SDS011;17927;52.350;13.402;2023-10-31T14:28:59;2.05;;;0.40;;
31298;SDS011;17927;52.350;13.402;2023-10-31T14:31:25;0.82;;;0.73;;
31298;SDS011;17927;52.350;13.402;2023-10-31T14:33:50;2.22;;;0.32;;
31298;SDS011;17927;52.350;13.402;2023-10-31T14:36:15;0.63;;;0.40;;